sensor_id;sensor_type;location;lat;lon;timestamp;P1;durP1;ratioP1;P2;durP2;ratioP2
14088;SDS011;7120;52.890;6.040;2023-02-04T00:00:11;958.60;;;896.57;;
14088;SDS011;7120;52.890;6.040;2023-02-04T00:02:39;1011.77;;;939.30;;
14088;SDS011;7120;52.890;6.040;2023-02-04T00:05:05;964.43;;;900.47;;
14088;SDS011;7120;52.890;6.040;2023-02-04T00:07:32;1008.00;;;938.63;;
14088;SDS011;7120;52.890;6.040;2023-02-04T00:09:57;961.97;;;895.50;;
14088;SDS011;7120;52.890;6.040;2023-02-04T00:12:22;988.23;;;919.37;;
14088;SDS011;7120;52.890;6.040;2023-02-04T00:14:48;994.00;;;924.67;;
14088;SDS011;7120;52.890;6.040;2023-02-04T00:17:13;1024.03;;;952.03;;
14088;SDS011;7120;52.890;6.040;2023-02-04T00:19:39;1020.53;;;947.70;;
14088;SDS011;7120;52.890;6.040;2023-02-04T00:22:05;999.40;;;930.33;;
14088;SDS011;7120;52.890;6.040;2023-02-04T00:24:32;963.53;;;898.63;;
14088;SDS011;7120;52.890;6.040;2023-02-04T00:27:01;1008.90;;;938.83;;
14088;SDS011;7120;52.890;6.040;2023-02-04T00:29:27;993.57;;;924.23;;
14088;SDS011;7120;52.890;6.040;2023-02-04T00:31:53;980.17;;;911.03;;
14088;SDS011;7120;52.890;6.040;2023-02-04T00:34:18;1039.97;;;963.00;;
14088;SDS011;7120;52.890;6.040;2023-02-04T00:36:44;1005.37;;;933.73;;
14088;SDS011;7120;52.890;6.040;2023-02-04T00:39:10;1012.03;;;940.50;;
14088;SDS011;7120;52.890;6.040;2023-02-04T00:41:36;1028.07;;;951.73;;
14088;SDS011;7120;52.890;6.040;2023-02-04T00:44:02;1042.37;;;967.20;;
14088;SDS011;7120;52.890;6.040;2023-02-04T00:46:28;1012.83;;;941.43;;
14088;SDS011;7120;52.890;6.040;2023-02-04T00:48:53;974.40;;;905.40;;
14088;SDS011;7120;52.890;6.040;2023-02-04T00:51:18;1027.23;;;950.90;;
14088;SDS011;7120;52.890;6.040;2023-02-04T00:53:44;989.63;;;920.07;;
14088;SDS011;7120;52.890;6.040;2023-02-04T00:56:10;957.07;;;891.43;;
14088;SDS011;7120;52.890;6.040;2023-02-04T00:58:36;967.03;;;901.20;;
14088;SDS011;7120;52.890;6.040;2023-02-04T01:01:01;900.73;;;844.03;;
14088;SDS011;7120;52.890;6.040;2023-02-04T01:03:27;1010.90;;;937.13;;
14088;SDS011;7120;52.890;6.040;2023-02-04T01:05:52;975.17;;;911.13;;
14088;SDS011;7120;52.890;6.040;2023-02-04T01:08:18;905.40;;;845.37;;
14088;SDS011;7120;52.890;6.040;2023-02-04T01:10:43;1005.40;;;935.07;;
14088;SDS011;7120;52.890;6.040;2023-02-04T01:13:09;994.73;;;921.97;;
14088;SDS011;7120;52.890;6.040;2023-02-04T01:15:34;993.43;;;922.13;;
14088;SDS011;7120;52.890;6.040;2023-02-04T01:18:00;987.10;;;917.63;;
14088;SDS011;7120;52.890;6.040;2023-02-04T01:20:25;1025.43;;;952.80;;
14088;SDS011;7120;52.890;6.040;2023-02-04T01:22:51;961.60;;;895.07;;
14088;SDS011;7120;52.890;6.040;2023-02-04T01:25:16;1011.40;;;935.00;;
14088;SDS011;7120;52.890;6.040;2023-02-04T01:27:42;1020.37;;;945.83;;
14088;SDS011;7120;52.890;6.040;2023-02-04T01:30:09;1041.40;;;965.70;;
14088;SDS011;7120;52.890;6.040;2023-02-04T01:32:36;990.43;;;922.80;;
14088;SDS011;7120;52.890;6.040;2023-02-04T01:35:01;986.87;;;917.07;;
14088;SDS011;7120;52.890;6.040;2023-02-04T01:37:27;916.87;;;856.33;;
14088;SDS011;7120;52.890;6.040;2023-02-04T01:39:52;978.77;;;910.00;;
14088;SDS011;7120;52.890;6.040;2023-02-04T01:42:18;902.73;;;844.77;;
14088;SDS011;7120;52.890;6.040;2023-02-04T01:44:43;788.70;;;737.97;;
14088;SDS011;7120;52.890;6.040;2023-02-04T01:47:09;909.53;;;851.23;;
14088;SDS011;7120;52.890;6.040;2023-02-04T01:49:35;806.83;;;757.50;;
14088;SDS011;7120;52.890;6.040;2023-02-04T01:52:01;1117.23;;;755.60;;
14088;SDS011;7120;52.890;6.040;2023-02-04T01:54:27;1999.90;;;999.90;;
14088;SDS011;7120;52.890;6.040;2023-02-04T01:56:52;1999.90;;;999.90;;
14088;SDS011;7120;52.890;6.040;2023-02-04T01:59:19;1999.90;;;999.90;;
14088;SDS011;7120;52.890;6.040;2023-02-04T02:01:47;1999.90;;;999.90;;
14088;SDS011;7120;52.890;6.040;2023-02-04T02:04:17;1999.90;;;999.90;;
14088;SDS011;7120;52.890;6.040;2023-02-04T02:06:52;1999.90;;;999.90;;
14088;SDS011;7120;52.890;6.040;2023-02-04T02:09:21;1999.90;;;999.90;;
14088;SDS011;7120;52.890;6.040;2023-02-04T02:11:47;1999.90;;;999.90;;
14088;SDS011;7120;52.890;6.040;2023-02-04T02:14:13;1999.90;;;999.90;;
14088;SDS011;7120;52.890;6.040;2023-02-04T02:16:39;1422.30;;;731.73;;
14088;SDS011;7120;52.890;6.040;2023-02-04T02:19:05;1999.90;;;999.90;;
14088;SDS011;7120;52.890;6.040;2023-02-04T02:21:38;1999.90;;;999.90;;
14088;SDS011;7120;52.890;6.040;2023-02-04T02:24:24;950.73;;;803.53;;
14088;SDS011;7120;52.890;6.040;2023-02-04T02:26:50;946.10;;;748.80;;
14088;SDS011;7120;52.890;6.040;2023-02-04T02:29:17;1170.17;;;999.90;;
14088;SDS011;7120;52.890;6.040;2023-02-04T02:31:43;1226.77;;;999.90;;
14088;SDS011;7120;52.890;6.040;2023-02-04T02:34:08;1181.13;;;999.90;;
14088;SDS011;7120;52.890;6.040;2023-02-04T02:36:34;1179.80;;;999.90;;
14088;SDS011;7120;52.890;6.040;2023-02-04T02:38:59;1259.10;;;999.90;;
14088;SDS011;7120;52.890;6.040;2023-02-04T02:41:25;1206.63;;;999.90;;
14088;SDS011;7120;52.890;6.040;2023-02-04T02:43:50;1178.90;;;999.90;;
14088;SDS011;7120;52.890;6.040;2023-02-04T02:46:16;1210.33;;;999.90;;
14088;SDS011;7120;52.890;6.040;2023-02-04T02:48:41;1200.03;;;999.90;;
14088;SDS011;7120;52.890;6.040;2023-02-04T02:51:07;1209.03;;;999.90;;
14088;SDS011;7120;52.890;6.040;2023-02-04T02:53:32;1222.93;;;999.90;;
14088;SDS011;7120;52.890;6.040;2023-02-04T02:55:58;1200.50;;;999.90;;
14088;SDS011;7120;52.890;6.040;2023-02-04T02:58:33;1164.00;;;999.90;;
14088;SDS011;7120;52.890;6.040;2023-02-04T03:01:00;1203.40;;;999.90;;
14088;SDS011;7120;52.890;6.040;2023-02-04T03:03:29;1228.93;;;999.90;;
14088;SDS011;7120;52.890;6.040;2023-02-04T03:06:03;1115.27;;;999.90;;
14088;SDS011;7120;52.890;6.040;2023-02-04T03:08:34;1170.40;;;999.90;;
14088;SDS011;7120;52.890;6.040;2023-02-04T03:11:00;1112.10;;;999.90;;
14088;SDS011;7120;52.890;6.040;2023-02-04T03:13:26;1102.40;;;999.90;;
14088;SDS011;7120;52.890;6.040;2023-02-04T03:15:51;1064.80;;;981.07;;
14088;SDS011;7120;52.890;6.040;2023-02-04T03:18:18;1147.10;;;999.90;;
14088;SDS011;7120;52.890;6.040;2023-02-04T03:20:44;1103.83;;;999.90;;
14088;SDS011;7120;52.890;6.040;2023-02-04T03:23:11;1128.70;;;999.90;;
14088;SDS011;7120;52.890;6.040;2023-02-04T03:25:37;1146.40;;;999.90;;
14088;SDS011;7120;52.890;6.040;2023-02-04T03:28:03;1082.87;;;993.10;;
14088;SDS011;7120;52.890;6.040;2023-02-04T03:30:29;1046.93;;;970.20;;
14088;SDS011;7120;52.890;6.040;2023-02-04T03:32:55;1090.40;;;999.90;;
14088;SDS011;7120;52.890;6.040;2023-02-04T03:35:20;1054.73;;;975.63;;
14088;SDS011;7120;52.890;6.040;2023-02-04T03:37:46;1091.53;;;999.90;;
14088;SDS011;7120;52.890;6.040;2023-02-04T03:40:12;1072.03;;;991.33;;
14088;SDS011;7120;52.890;6.040;2023-02-04T03:42:38;1071.87;;;987.27;;
14088;SDS011;7120;52.890;6.040;2023-02-04T03:45:03;992.07;;;919.80;;
14088;SDS011;7120;52.890;6.040;2023-02-04T03:47:29;1077.67;;;991.93;;
14088;SDS011;7120;52.890;6.040;2023-02-04T03:49:54;1012.23;;;939.87;;
14088;SDS011;7120;52.890;6.040;2023-02-04T03:52:22;1012.60;;;938.00;;
14088;SDS011;7120;52.890;6.040;2023-02-04T03:54:47;985.23;;;916.47;;
14088;SDS011;7120;52.890;6.040;2023-02-04T03:57:12;1054.33;;;974.93;;
14088;SDS011;7120;52.890;6.040;2023-02-04T03:59:39;972.83;;;905.00;;
14088;SDS011;7120;52.890;6.040;2023-02-04T04:02:05;1010.60;;;938.17;;
14088;SDS011;7120;52.890;6.040;2023-02-04T04:04:31;997.80;;;925.07;;
14088;SDS011;7120;52.890;6.040;2023-02-04T04:06:56;922.83;;;859.13;;
14088;SDS011;7120;52.890;6.040;2023-02-04T04:09:22;865.17;;;808.50;;
14088;SDS011;7120;52.890;6.040;2023-02-04T04:11:47;1013.33;;;941.87;;
14088;SDS011;7120;52.890;6.040;2023-02-04T04:14:12;967.87;;;900.07;;
14088;SDS011;7120;52.890;6.040;2023-02-04T04:16:38;987.73;;;918.40;;
14088;SDS011;7120;52.890;6.040;2023-02-04T04:19:03;923.80;;;861.37;;
14088;SDS011;7120;52.890;6.040;2023-02-04T04:21:28;797.37;;;747.20;;
14088;SDS011;7120;52.890;6.040;2023-02-04T04:23:55;954.50;;;888.83;;
14088;SDS011;7120;52.890;6.040;2023-02-04T04:26:20;659.37;;;621.57;;
14088;SDS011;7120;52.890;6.040;2023-02-04T04:28:46;712.10;;;668.60;;
14088;SDS011;7120;52.890;6.040;2023-02-04T04:31:11;493.13;;;463.17;;
14088;SDS011;7120;52.890;6.040;2023-02-04T04:33:36;588.73;;;555.70;;
14088;SDS011;7120;52.890;6.040;2023-02-04T04:36:03;782.50;;;733.80;;
14088;SDS011;7120;52.890;6.040;2023-02-04T04:38:28;750.27;;;706.63;;
14088;SDS011;7120;52.890;6.040;2023-02-04T04:40:54;772.47;;;726.57;;
14088;SDS011;7120;52.890;6.040;2023-02-04T04:43:19;685.63;;;645.53;;
14088;SDS011;7120;52.890;6.040;2023-02-04T04:45:45;790.07;;;738.50;;
14088;SDS011;7120;52.890;6.040;2023-02-04T04:48:10;877.07;;;820.23;;
14088;SDS011;7120;52.890;6.040;2023-02-04T04:50:36;831.00;;;778.80;;
14088;SDS011;7120;52.890;6.040;2023-02-04T04:53:01;729.70;;;687.00;;
14088;SDS011;7120;52.890;6.040;2023-02-04T04:55:26;714.13;;;672.00;;
14088;SDS011;7120;52.890;6.040;2023-02-04T04:57:52;504.23;;;473.73;;
14088;SDS011;7120;52.890;6.040;2023-02-04T05:00:18;426.30;;;401.37;;
14088;SDS011;7120;52.890;6.040;2023-02-04T05:02:44;789.67;;;742.77;;
14088;SDS011;7120;52.890;6.040;2023-02-04T05:05:10;566.47;;;535.03;;
14088;SDS011;7120;52.890;6.040;2023-02-04T05:07:36;680.87;;;641.83;;
14088;SDS011;7120;52.890;6.040;2023-02-04T05:10:02;789.73;;;740.90;;
14088;SDS011;7120;52.890;6.040;2023-02-04T05:12:28;690.00;;;646.93;;
14088;SDS011;7120;52.890;6.040;2023-02-04T05:14:53;773.87;;;727.43;;
14088;SDS011;7120;52.890;6.040;2023-02-04T05:17:19;663.27;;;624.67;;
14088;SDS011;7120;52.890;6.040;2023-02-04T05:19:44;727.73;;;682.50;;
14088;SDS011;7120;52.890;6.040;2023-02-04T05:22:09;922.07;;;857.90;;
14088;SDS011;7120;52.890;6.040;2023-02-04T05:24:35;819.10;;;766.90;;
14088;SDS011;7120;52.890;6.040;2023-02-04T05:27:00;936.90;;;872.87;;
14088;SDS011;7120;52.890;6.040;2023-02-04T05:29:26;997.20;;;924.67;;
14088;SDS011;7120;52.890;6.040;2023-02-04T05:31:51;901.67;;;836.63;;
14088;SDS011;7120;52.890;6.040;2023-02-04T05:34:16;823.77;;;770.60;;
14088;SDS011;7120;52.890;6.040;2023-02-04T05:36:42;564.93;;;533.00;;
14088;SDS011;7120;52.890;6.040;2023-02-04T05:39:07;868.73;;;815.27;;
14088;SDS011;7120;52.890;6.040;2023-02-04T05:41:32;917.40;;;855.90;;
14088;SDS011;7120;52.890;6.040;2023-02-04T05:43:58;884.33;;;826.10;;
14088;SDS011;7120;52.890;6.040;2023-02-04T05:46:23;751.87;;;706.40;;
14088;SDS011;7120;52.890;6.040;2023-02-04T05:48:48;850.83;;;796.17;;
14088;SDS011;7120;52.890;6.040;2023-02-04T05:51:14;831.20;;;778.73;;
14088;SDS011;7120;52.890;6.040;2023-02-04T05:53:39;879.57;;;824.63;;
14088;SDS011;7120;52.890;6.040;2023-02-04T05:56:05;878.13;;;822.73;;
14088;SDS011;7120;52.890;6.040;2023-02-04T05:58:31;786.63;;;738.47;;
14088;SDS011;7120;52.890;6.040;2023-02-04T06:00:59;911.10;;;852.13;;
14088;SDS011;7120;52.890;6.040;2023-02-04T06:03:25;743.37;;;699.27;;
14088;SDS011;7120;52.890;6.040;2023-02-04T06:05:51;926.77;;;866.27;;
14088;SDS011;7120;52.890;6.040;2023-02-04T06:08:17;878.03;;;821.40;;
14088;SDS011;7120;52.890;6.040;2023-02-04T06:10:42;914.03;;;853.57;;
14088;SDS011;7120;52.890;6.040;2023-02-04T06:13:08;849.00;;;797.47;;
14088;SDS011;7120;52.890;6.040;2023-02-04T06:15:33;903.10;;;844.93;;
14088;SDS011;7120;52.890;6.040;2023-02-04T06:17:59;872.07;;;815.97;;
14088;SDS011;7120;52.890;6.040;2023-02-04T06:20:24;940.00;;;876.43;;
14088;SDS011;7120;52.890;6.040;2023-02-04T06:22:49;897.77;;;838.37;;
14088;SDS011;7120;52.890;6.040;2023-02-04T06:25:18;940.97;;;877.73;;
14088;SDS011;7120;52.890;6.040;2023-02-04T06:27:44;882.93;;;826.23;;
14088;SDS011;7120;52.890;6.040;2023-02-04T06:30:10;917.73;;;854.90;;
14088;SDS011;7120;52.890;6.040;2023-02-04T06:32:36;890.60;;;832.33;;
14088;SDS011;7120;52.890;6.040;2023-02-04T06:35:02;878.37;;;819.57;;
14088;SDS011;7120;52.890;6.040;2023-02-04T06:37:27;820.73;;;770.27;;
14088;SDS011;7120;52.890;6.040;2023-02-04T06:39:52;913.53;;;855.70;;
14088;SDS011;7120;52.890;6.040;2023-02-04T06:42:18;864.93;;;806.47;;
14088;SDS011;7120;52.890;6.040;2023-02-04T06:44:44;833.20;;;781.33;;
14088;SDS011;7120;52.890;6.040;2023-02-04T06:47:10;850.50;;;797.07;;
14088;SDS011;7120;52.890;6.040;2023-02-04T06:49:35;859.23;;;805.17;;
14088;SDS011;7120;52.890;6.040;2023-02-04T06:52:01;887.73;;;828.80;;
14088;SDS011;7120;52.890;6.040;2023-02-04T06:54:26;877.13;;;820.23;;
14088;SDS011;7120;52.890;6.040;2023-02-04T06:56:51;885.03;;;827.90;;
14088;SDS011;7120;52.890;6.040;2023-02-04T06:59:17;911.73;;;850.83;;
14088;SDS011;7120;52.890;6.040;2023-02-04T07:01:42;1018.50;;;944.37;;
14088;SDS011;7120;52.890;6.040;2023-02-04T07:04:08;1017.50;;;942.73;;
14088;SDS011;7120;52.890;6.040;2023-02-04T07:06:33;1056.40;;;977.27;;
14088;SDS011;7120;52.890;6.040;2023-02-04T07:08:58;1044.90;;;966.73;;
14088;SDS011;7120;52.890;6.040;2023-02-04T07:11:24;1030.57;;;955.73;;
14088;SDS011;7120;52.890;6.040;2023-02-04T07:13:49;1044.07;;;966.23;;
14088;SDS011;7120;52.890;6.040;2023-02-04T07:16:15;1035.70;;;957.80;;
14088;SDS011;7120;52.890;6.040;2023-02-04T07:18:40;1126.03;;;999.90;;
14088;SDS011;7120;52.890;6.040;2023-02-04T07:21:05;1010.17;;;935.63;;
14088;SDS011;7120;52.890;6.040;2023-02-04T07:23:31;984.47;;;918.07;;
14088;SDS011;7120;52.890;6.040;2023-02-04T07:25:56;1042.93;;;964.03;;
14088;SDS011;7120;52.890;6.040;2023-02-04T07:28:23;1004.23;;;924.37;;
14088;SDS011;7120;52.890;6.040;2023-02-04T07:30:49;958.87;;;891.37;;
14088;SDS011;7120;52.890;6.040;2023-02-04T07:33:14;912.60;;;852.00;;
14088;SDS011;7120;52.890;6.040;2023-02-04T07:35:39;967.97;;;898.47;;
14088;SDS011;7120;52.890;6.040;2023-02-04T07:38:05;1070.80;;;984.33;;
14088;SDS011;7120;52.890;6.040;2023-02-04T07:40:30;1025.97;;;951.53;;
14088;SDS011;7120;52.890;6.040;2023-02-04T07:42:56;991.13;;;919.27;;
14088;SDS011;7120;52.890;6.040;2023-02-04T07:45:21;953.07;;;886.00;;
14088;SDS011;7120;52.890;6.040;2023-02-04T07:47:47;1029.73;;;947.53;;
14088;SDS011;7120;52.890;6.040;2023-02-04T07:50:12;1103.27;;;999.90;;
14088;SDS011;7120;52.890;6.040;2023-02-04T07:52:38;1147.13;;;999.90;;
14088;SDS011;7120;52.890;6.040;2023-02-04T07:55:04;924.50;;;834.57;;
14088;SDS011;7120;52.890;6.040;2023-02-04T07:57:30;1129.90;;;999.90;;
14088;SDS011;7120;52.890;6.040;2023-02-04T07:59:55;1128.80;;;999.90;;
14088;SDS011;7120;52.890;6.040;2023-02-04T08:02:21;1139.57;;;999.90;;
14088;SDS011;7120;52.890;6.040;2023-02-04T08:04:46;1126.70;;;999.90;;
14088;SDS011;7120;52.890;6.040;2023-02-04T08:07:12;1129.33;;;999.90;;
14088;SDS011;7120;52.890;6.040;2023-02-04T08:09:37;1138.57;;;999.90;;
14088;SDS011;7120;52.890;6.040;2023-02-04T08:12:03;1079.33;;;994.23;;
14088;SDS011;7120;52.890;6.040;2023-02-04T08:14:28;1145.50;;;999.90;;
14088;SDS011;7120;52.890;6.040;2023-02-04T08:16:54;1106.63;;;999.90;;
14088;SDS011;7120;52.890;6.040;2023-02-04T08:19:19;1172.87;;;999.90;;
14088;SDS011;7120;52.890;6.040;2023-02-04T08:21:45;1128.07;;;999.90;;
14088;SDS011;7120;52.890;6.040;2023-02-04T08:24:12;1152.63;;;999.90;;
14088;SDS011;7120;52.890;6.040;2023-02-04T08:26:39;1051.13;;;970.67;;
14088;SDS011;7120;52.890;6.040;2023-02-04T08:29:05;1109.07;;;999.90;;
14088;SDS011;7120;52.890;6.040;2023-02-04T08:31:31;968.20;;;900.23;;
14088;SDS011;7120;52.890;6.040;2023-02-04T08:33:57;1024.07;;;951.57;;
14088;SDS011;7120;52.890;6.040;2023-02-04T08:36:22;918.00;;;857.47;;
14088;SDS011;7120;52.890;6.040;2023-02-04T08:38:47;956.57;;;891.80;;
14088;SDS011;7120;52.890;6.040;2023-02-04T08:41:13;909.70;;;850.03;;
14088;SDS011;7120;52.890;6.040;2023-02-04T08:43:38;883.50;;;825.27;;
14088;SDS011;7120;52.890;6.040;2023-02-04T08:46:04;961.33;;;897.10;;
14088;SDS011;7120;52.890;6.040;2023-02-04T08:48:29;927.30;;;863.60;;
14088;SDS011;7120;52.890;6.040;2023-02-04T08:50:55;1000.00;;;926.23;;
14088;SDS011;7120;52.890;6.040;2023-02-04T08:53:20;970.47;;;903.63;;
14088;SDS011;7120;52.890;6.040;2023-02-04T08:55:45;1067.63;;;989.40;;
14088;SDS011;7120;52.890;6.040;2023-02-04T08:58:11;1111.80;;;999.90;;
14088;SDS011;7120;52.890;6.040;2023-02-04T09:00:36;1160.47;;;999.90;;
14088;SDS011;7120;52.890;6.040;2023-02-04T09:03:02;1135.43;;;999.90;;
14088;SDS011;7120;52.890;6.040;2023-02-04T09:05:27;1208.27;;;999.90;;
14088;SDS011;7120;52.890;6.040;2023-02-04T09:07:52;1215.97;;;999.90;;
14088;SDS011;7120;52.890;6.040;2023-02-04T09:10:18;1165.57;;;996.30;;
14088;SDS011;7120;52.890;6.040;2023-02-04T09:12:43;1257.43;;;999.90;;
14088;SDS011;7120;52.890;6.040;2023-02-04T09:15:09;1222.93;;;999.90;;
14088;SDS011;7120;52.890;6.040;2023-02-04T09:17:35;1274.70;;;999.90;;
14088;SDS011;7120;52.890;6.040;2023-02-04T09:20:01;1281.53;;;999.90;;
14088;SDS011;7120;52.890;6.040;2023-02-04T09:22:27;1999.90;;;999.90;;
14088;SDS011;7120;52.890;6.040;2023-02-04T09:24:53;1999.90;;;999.90;;
14088;SDS011;7120;52.890;6.040;2023-02-04T09:27:18;1999.90;;;999.90;;
14088;SDS011;7120;52.890;6.040;2023-02-04T09:29:43;1999.90;;;999.90;;
14088;SDS011;7120;52.890;6.040;2023-02-04T09:32:09;1999.90;;;999.90;;
14088;SDS011;7120;52.890;6.040;2023-02-04T09:34:34;1999.90;;;999.90;;
14088;SDS011;7120;52.890;6.040;2023-02-04T09:37:00;1999.90;;;999.90;;
14088;SDS011;7120;52.890;6.040;2023-02-04T09:39:25;1999.90;;;999.90;;
14088;SDS011;7120;52.890;6.040;2023-02-04T09:41:51;1999.90;;;999.90;;
14088;SDS011;7120;52.890;6.040;2023-02-04T09:44:19;1999.90;;;999.90;;
14088;SDS011;7120;52.890;6.040;2023-02-04T09:46:50;1999.90;;;999.90;;
14088;SDS011;7120;52.890;6.040;2023-02-04T09:49:17;1999.90;;;999.90;;
14088;SDS011;7120;52.890;6.040;2023-02-04T09:51:43;1999.90;;;999.90;;
14088;SDS011;7120;52.890;6.040;2023-02-04T09:54:14;1999.90;;;999.90;;
14088;SDS011;7120;52.890;6.040;2023-02-04T09:56:42;1999.90;;;999.90;;
14088;SDS011;7120;52.890;6.040;2023-02-04T09:59:17;1999.90;;;999.90;;
14088;SDS011;7120;52.890;6.040;2023-02-04T10:01:46;1999.90;;;999.90;;
14088;SDS011;7120;52.890;6.040;2023-02-04T10:04:19;1999.90;;;999.90;;
14088;SDS011;7120;52.890;6.040;2023-02-04T10:06:46;1999.90;;;999.90;;
14088;SDS011;7120;52.890;6.040;2023-02-04T10:09:13;1999.90;;;999.90;;
14088;SDS011;7120;52.890;6.040;2023-02-04T10:11:41;1999.90;;;999.90;;
14088;SDS011;7120;52.890;6.040;2023-02-04T10:14:14;1999.90;;;999.90;;
14088;SDS011;7120;52.890;6.040;2023-02-04T10:16:43;1999.90;;;999.90;;
14088;SDS011;7120;52.890;6.040;2023-02-04T10:19:17;1999.90;;;999.90;;
14088;SDS011;7120;52.890;6.040;2023-02-04T10:21:43;1999.90;;;999.90;;
14088;SDS011;7120;52.890;6.040;2023-02-04T10:24:14;1999.90;;;999.90;;
14088;SDS011;7120;52.890;6.040;2023-02-04T10:26:41;1999.90;;;999.90;;
14088;SDS011;7120;52.890;6.040;2023-02-04T10:29:11;1999.90;;;999.90;;
14088;SDS011;7120;52.890;6.040;2023-02-04T10:31:43;1999.90;;;999.90;;
14088;SDS011;7120;52.890;6.040;2023-02-04T10:36:52;1999.90;;;999.90;;
14088;SDS011;7120;52.890;6.040;2023-02-04T10:39:28;1999.90;;;999.90;;
14088;SDS011;7120;52.890;6.040;2023-02-04T10:41:55;1999.90;;;999.90;;
14088;SDS011;7120;52.890;6.040;2023-02-04T10:46:58;1999.90;;;999.90;;
14088;SDS011;7120;52.890;6.040;2023-02-04T10:49:33;1999.90;;;999.90;;
14088;SDS011;7120;52.890;6.040;2023-02-04T10:51:59;1999.90;;;999.90;;
14088;SDS011;7120;52.890;6.040;2023-02-04T10:54:27;1999.90;;;999.90;;
14088;SDS011;7120;52.890;6.040;2023-02-04T10:59:26;1999.90;;;999.90;;
14088;SDS011;7120;52.890;6.040;2023-02-04T11:01:56;1999.90;;;999.90;;
14088;SDS011;7120;52.890;6.040;2023-02-04T11:04:24;1999.90;;;999.90;;
14088;SDS011;7120;52.890;6.040;2023-02-04T11:06:52;1999.90;;;999.90;;
14088;SDS011;7120;52.890;6.040;2023-02-04T11:09:19;1999.90;;;999.90;;
14088;SDS011;7120;52.890;6.040;2023-02-04T11:11:46;1999.90;;;999.90;;
14088;SDS011;7120;52.890;6.040;2023-02-04T11:16:49;1999.90;;;999.90;;
14088;SDS011;7120;52.890;6.040;2023-02-04T11:19:29;1999.90;;;999.90;;
14088;SDS011;7120;52.890;6.040;2023-02-04T11:22:04;1999.90;;;999.90;;
14088;SDS011;7120;52.890;6.040;2023-02-04T11:24:45;1999.90;;;999.90;;
14088;SDS011;7120;52.890;6.040;2023-02-04T11:27:19;1999.90;;;999.90;;
14088;SDS011;7120;52.890;6.040;2023-02-04T11:29:49;1999.90;;;999.90;;
14088;SDS011;7120;52.890;6.040;2023-02-04T11:35:05;1999.90;;;999.90;;
14088;SDS011;7120;52.890;6.040;2023-02-04T11:37:37;1999.90;;;999.90;;
14088;SDS011;7120;52.890;6.040;2023-02-04T11:40:38;1999.90;;;999.90;;
14088;SDS011;7120;52.890;6.040;2023-02-04T11:43:16;1999.90;;;999.90;;
14088;SDS011;7120;52.890;6.040;2023-02-04T11:45:42;1999.90;;;999.90;;
14088;SDS011;7120;52.890;6.040;2023-02-04T11:48:18;1999.90;;;999.90;;
14088;SDS011;7120;52.890;6.040;2023-02-04T11:50:55;1999.90;;;999.90;;
14088;SDS011;7120;52.890;6.040;2023-02-04T11:53:23;1999.90;;;999.90;;
14088;SDS011;7120;52.890;6.040;2023-02-04T11:55:52;1999.90;;;999.90;;
14088;SDS011;7120;52.890;6.040;2023-02-04T11:58:18;1999.90;;;999.90;;
14088;SDS011;7120;52.890;6.040;2023-02-04T12:00:44;1999.90;;;999.90;;
14088;SDS011;7120;52.890;6.040;2023-02-04T12:03:45;1999.90;;;999.90;;
14088;SDS011;7120;52.890;6.040;2023-02-04T12:06:09;1999.90;;;999.90;;
14088;SDS011;7120;52.890;6.040;2023-02-04T12:08:48;1999.90;;;999.90;;
14088;SDS011;7120;52.890;6.040;2023-02-04T12:11:24;1999.90;;;999.90;;
14088;SDS011;7120;52.890;6.040;2023-02-04T12:13:53;1999.90;;;999.90;;
14088;SDS011;7120;52.890;6.040;2023-02-04T12:16:20;1999.90;;;999.90;;
14088;SDS011;7120;52.890;6.040;2023-02-04T12:18:46;1999.90;;;999.90;;
14088;SDS011;7120;52.890;6.040;2023-02-04T12:21:13;1999.90;;;999.90;;
14088;SDS011;7120;52.890;6.040;2023-02-04T12:23:39;1999.90;;;999.90;;
14088;SDS011;7120;52.890;6.040;2023-02-04T12:26:06;1999.90;;;999.90;;
14088;SDS011;7120;52.890;6.040;2023-02-04T12:28:32;1999.90;;;999.90;;
14088;SDS011;7120;52.890;6.040;2023-02-04T12:30:57;1999.90;;;999.90;;
14088;SDS011;7120;52.890;6.040;2023-02-04T12:33:24;1999.90;;;999.90;;
14088;SDS011;7120;52.890;6.040;2023-02-04T12:35:50;1999.90;;;999.90;;
14088;SDS011;7120;52.890;6.040;2023-02-04T12:38:15;1999.90;;;999.90;;
14088;SDS011;7120;52.890;6.040;2023-02-04T12:40:41;1999.90;;;999.90;;
14088;SDS011;7120;52.890;6.040;2023-02-04T12:43:08;1999.90;;;999.90;;
14088;SDS011;7120;52.890;6.040;2023-02-04T12:45:34;1999.90;;;999.90;;
14088;SDS011;7120;52.890;6.040;2023-02-04T12:47:59;1999.90;;;999.90;;
14088;SDS011;7120;52.890;6.040;2023-02-04T12:50:25;1999.90;;;999.90;;
14088;SDS011;7120;52.890;6.040;2023-02-04T12:52:54;1999.90;;;999.90;;
14088;SDS011;7120;52.890;6.040;2023-02-04T12:55:21;1999.90;;;999.90;;
14088;SDS011;7120;52.890;6.040;2023-02-04T12:57:48;1999.90;;;999.90;;
14088;SDS011;7120;52.890;6.040;2023-02-04T13:02:41;1999.90;;;999.90;;
14088;SDS011;7120;52.890;6.040;2023-02-04T13:05:07;1999.90;;;999.90;;
14088;SDS011;7120;52.890;6.040;2023-02-04T13:07:33;1999.90;;;999.90;;
14088;SDS011;7120;52.890;6.040;2023-02-04T13:10:00;1999.90;;;999.90;;
14088;SDS011;7120;52.890;6.040;2023-02-04T13:12:25;1999.90;;;999.90;;
14088;SDS011;7120;52.890;6.040;2023-02-04T13:14:51;1999.90;;;999.90;;
14088;SDS011;7120;52.890;6.040;2023-02-04T13:17:16;1999.90;;;999.90;;
14088;SDS011;7120;52.890;6.040;2023-02-04T13:19:42;1999.90;;;999.90;;
14088;SDS011;7120;52.890;6.040;2023-02-04T13:22:08;1999.90;;;999.90;;
14088;SDS011;7120;52.890;6.040;2023-02-04T13:24:33;1999.90;;;999.90;;
14088;SDS011;7120;52.890;6.040;2023-02-04T13:26:59;1999.90;;;999.90;;
14088;SDS011;7120;52.890;6.040;2023-02-04T13:29:24;1999.90;;;999.90;;
14088;SDS011;7120;52.890;6.040;2023-02-04T13:31:50;1999.90;;;999.90;;
14088;SDS011;7120;52.890;6.040;2023-02-04T13:34:16;1999.90;;;999.90;;
14088;SDS011;7120;52.890;6.040;2023-02-04T13:36:41;1999.90;;;999.90;;
14088;SDS011;7120;52.890;6.040;2023-02-04T13:39:08;1999.90;;;999.90;;
14088;SDS011;7120;52.890;6.040;2023-02-04T13:41:33;1999.90;;;999.90;;
14088;SDS011;7120;52.890;6.040;2023-02-04T13:43:59;1999.90;;;999.90;;
14088;SDS011;7120;52.890;6.040;2023-02-04T13:46:25;1999.90;;;999.90;;
14088;SDS011;7120;52.890;6.040;2023-02-04T13:48:50;1999.90;;;999.90;;
14088;SDS011;7120;52.890;6.040;2023-02-04T13:51:15;1999.90;;;999.90;;
14088;SDS011;7120;52.890;6.040;2023-02-04T13:53:41;1999.90;;;999.90;;
14088;SDS011;7120;52.890;6.040;2023-02-04T13:56:07;1999.90;;;999.90;;
14088;SDS011;7120;52.890;6.040;2023-02-04T13:58:33;1999.90;;;999.90;;
14088;SDS011;7120;52.890;6.040;2023-02-04T14:00:58;1999.90;;;999.90;;
14088;SDS011;7120;52.890;6.040;2023-02-04T14:03:25;1999.90;;;999.90;;
14088;SDS011;7120;52.890;6.040;2023-02-04T14:05:51;1999.90;;;999.90;;
14088;SDS011;7120;52.890;6.040;2023-02-04T14:08:17;1999.90;;;999.90;;
14088;SDS011;7120;52.890;6.040;2023-02-04T14:10:43;1999.90;;;999.90;;
14088;SDS011;7120;52.890;6.040;2023-02-04T14:13:08;1999.90;;;999.90;;